sensor_id;sensor_type;location;lat;lon;timestamp;pressure;altitude;pressure_sealevel;temperature;humidity
13476;BME280;6810;63.824;20.288;2022-10-31T03:56:25;101446.28;;;-0.03;69.62
13476;BME280;6810;63.824;20.288;2022-10-31T03:59:00;101490.75;;;0.27;70.07
13476;BME280;6810;63.824;20.288;2022-10-31T04:01:53;101475.84;;;0.28;69.95
13476;BME280;6810;63.824;20.288;2022-10-31T04:04:44;101472.41;;;0.26;70.00
13476;BME280;6810;63.824;20.288;2022-10-31T04:07:36;101468.91;;;0.24;70.06
13476;BME280;6810;63.824;20.288;2022-10-31T04:10:26;101469.78;;;0.23;69.85
13476;BME280;6810;63.824;20.288;2022-10-31T04:13:19;101475.88;;;0.22;70.00
13476;BME280;6810;63.824;20.288;2022-10-31T04:16:13;101471.53;;;0.21;70.12
13476;BME280;6810;63.824;20.288;2022-10-31T04:19:01;101466.31;;;0.19;70.32
13476;BME280;6810;63.824;20.288;2022-10-31T04:21:49;101464.56;;;0.18;70.06
13476;BME280;6810;63.824;20.288;2022-10-31T04:24:39;101395.75;;;-0.25;69.75
13476;BME280;6810;63.824;20.288;2022-10-31T04:27:26;101444.53;;;0.00;70.25
13476;BME280;6810;63.824;20.288;2022-10-31T04:30:13;101478.53;;;0.14;70.23
13476;BME280;6810;63.824;20.288;2022-10-31T04:33:00;101481.16;;;0.13;70.22
13476;BME280;6810;63.824;20.288;2022-10-31T04:35:47;101475.94;;;0.13;70.22
13476;BME280;6810;63.824;20.288;2022-10-31T04:38:34;101484.69;;;0.07;70.25
13476;BME280;6810;63.824;20.288;2022-10-31T04:41:34;101479.44;;;0.09;70.35
13476;BME280;6810;63.824;20.288;2022-10-31T04:44:22;101495.19;;;0.07;70.49
13476;BME280;6810;63.824;20.288;2022-10-31T04:47:09;101442.88;;;-0.20;70.32
13476;BME280;6810;63.824;20.288;2022-10-31T04:49:56;101482.97;;;0.02;70.50
13476;BME280;6810;63.824;20.288;2022-10-31T04:52:45;101493.44;;;0.06;70.92
13476;BME280;6810;63.824;20.288;2022-10-31T04:55:39;101492.59;;;0.01;70.44
13476;BME280;6810;63.824;20.288;2022-10-31T04:58:34;101505.69;;;0.01;70.64
13476;BME280;6810;63.824;20.288;2022-10-31T05:01:23;101506.56;;;0.02;70.66
13476;BME280;6810;63.824;20.288;2022-10-31T05:04:10;101508.31;;;-0.01;70.42
13476;BME280;6810;63.824;20.288;2022-10-31T05:06:57;101503.06;;;-0.02;70.53
13476;BME280;6810;63.824;20.288;2022-10-31T05:09:44;101502.19;;;-0.06;70.43
13476;BME280;6810;63.824;20.288;2022-10-31T05:12:32;101505.69;;;-0.07;70.55
13476;BME280;6810;63.824;20.288;2022-10-31T05:15:39;101498.69;;;-0.09;70.19
13476;BME280;6810;63.824;20.288;2022-10-31T05:18:28;101462.97;;;-0.31;70.52
13476;BME280;6810;63.824;20.288;2022-10-31T05:21:27;101494.38;;;-0.13;70.60
13476;BME280;6810;63.824;20.288;2022-10-31T05:24:14;101476.94;;;-0.25;70.38
13476;BME280;6810;63.824;20.288;2022-10-31T05:27:01;101487.41;;;-0.19;70.48
13476;BME280;6810;63.824;20.288;2022-10-31T05:29:48;101486.50;;;-0.16;70.48
13476;BME280;6810;63.824;20.288;2022-10-31T05:32:15;101481.28;;;-0.16;70.29
13476;BME280;6810;63.824;20.288;2022-10-31T05:35:23;101470.81;;;-0.24;70.68
13476;BME280;6810;63.824;20.288;2022-10-31T05:38:28;101478.66;;;-0.18;70.38
13476;BME280;6810;63.824;20.288;2022-10-31T05:41:22;101471.69;;;-0.20;70.46
13476;BME280;6810;63.824;20.288;2022-10-31T05:44:17;101466.47;;;-0.28;70.20
13476;BME280;6810;63.824;20.288;2022-10-31T05:47:21;101476.94;;;-0.25;70.67
13476;BME280;6810;63.824;20.288;2022-10-31T05:50:28;101473.44;;;-0.27;70.56
13476;BME280;6810;63.824;20.288;2022-10-31T05:53:15;101467.34;;;-0.29;70.76
13476;BME280;6810;63.824;20.288;2022-10-31T05:56:02;101458.63;;;-0.31;70.51
13476;BME280;6810;63.824;20.288;2022-10-31T05:58:49;101453.41;;;-0.32;70.45
13476;BME280;6810;63.824;20.288;2022-10-31T06:01:37;101455.13;;;-0.33;70.69
13476;BME280;6810;63.824;20.288;2022-10-31T06:04:43;101449.91;;;-0.36;70.68
13476;BME280;6810;63.824;20.288;2022-10-31T06:07:34;101324.44;;;-1.06;70.79
13476;BME280;6810;63.824;20.288;2022-10-31T06:10:22;101429.00;;;-0.51;71.16
13476;BME280;6810;63.824;20.288;2022-10-31T06:13:10;101445.53;;;-0.40;70.84
13476;BME280;6810;63.824;20.288;2022-10-31T06:16:03;101444.69;;;-0.42;70.95
13476;BME280;6810;63.824;20.288;2022-10-31T06:18:51;101434.22;;;-0.43;70.86
13476;BME280;6810;63.824;20.288;2022-10-31T06:21:38;101435.94;;;-0.44;70.84
13476;BME280;6810;63.824;20.288;2022-10-31T06:24:24;101428.97;;;-0.43;70.75
13476;BME280;6810;63.824;20.288;2022-10-31T06:27:29;101431.59;;;-0.43;70.85
13476;BME280;6810;63.824;20.288;2022-10-31T06:30:19;101327.94;;;-1.04;71.03
13476;BME280;6810;63.824;20.288;2022-10-31T06:33:05;101381.91;;;-0.78;70.69
13476;BME280;6810;63.824;20.288;2022-10-31T06:35:55;101431.63;;;-0.49;70.97
13476;BME280;6810;63.824;20.288;2022-10-31T06:38:42;101431.59;;;-0.48;70.81
13476;BME280;6810;63.824;20.288;2022-10-31T06:41:29;101412.44;;;-0.57;71.04
13476;BME280;6810;63.824;20.288;2022-10-31T06:44:19;101421.13;;;-0.48;70.67
13476;BME280;6810;63.824;20.288;2022-10-31T06:47:24;101422.00;;;-0.49;70.88
13476;BME280;6810;63.824;20.288;2022-10-31T06:50:35;101422.00;;;-0.49;70.83
13476;BME280;6810;63.824;20.288;2022-10-31T06:53:26;101425.50;;;-0.50;70.92
13476;BME280;6810;63.824;20.288;2022-10-31T06:56:15;101423.75;;;-0.51;71.13
13476;BME280;6810;63.824;20.288;2022-10-31T06:59:03;101427.22;;;-0.50;71.00
13476;BME280;6810;63.824;20.288;2022-10-31T07:02:09;101423.78;;;-0.54;70.88
13476;BME280;6810;63.824;20.288;2022-10-31T07:04:57;101421.16;;;-0.51;70.78
13476;BME280;6810;63.824;20.288;2022-10-31T07:07:43;101409.81;;;-0.56;70.82
13476;BME280;6810;63.824;20.288;2022-10-31T07:10:32;101411.53;;;-0.50;71.09
13476;BME280;6810;63.824;20.288;2022-10-31T07:13:20;101415.03;;;-0.53;70.77
13476;BME280;6810;63.824;20.288;2022-10-31T07:16:08;101411.53;;;-0.50;71.11
13476;BME280;6810;63.824;20.288;2022-10-31T07:18:55;101409.78;;;-0.50;71.15
13476;BME280;6810;63.824;20.288;2022-10-31T07:21:21;101414.13;;;-0.49;70.65
13476;BME280;6810;63.824;20.288;2022-10-31T07:24:10;101394.09;;;-0.57;71.29
13476;BME280;6810;63.824;20.288;2022-10-31T07:27:15;101320.94;;;-1.04;70.52
13476;BME280;6810;63.824;20.288;2022-10-31T07:30:10;101409.78;;;-0.50;71.16
13476;BME280;6810;63.824;20.288;2022-10-31T07:32:57;101399.31;;;-0.50;70.99
13476;BME280;6810;63.824;20.288;2022-10-31T07:36:03;101419.38;;;-0.50;71.14
13476;BME280;6810;63.824;20.288;2022-10-31T07:38:51;101421.16;;;-0.51;71.21
13476;BME280;6810;63.824;20.288;2022-10-31T07:41:38;101403.69;;;-0.52;70.99
13476;BME280;6810;63.824;20.288;2022-10-31T07:44:25;101390.56;;;-0.49;71.28
13476;BME280;6810;63.824;20.288;2022-10-31T07:47:51;101397.56;;;-0.48;71.12
13476;BME280;6810;63.824;20.288;2022-10-31T07:50:57;101385.31;;;-0.46;70.95
13476;BME280;6810;63.824;20.288;2022-10-31T07:54:02;101391.44;;;-0.44;71.61
13476;BME280;6810;63.824;20.288;2022-10-31T07:56:49;101378.34;;;-0.41;71.15
13476;BME280;6810;63.824;20.288;2022-10-31T07:59:37;101378.34;;;-0.39;71.28
13476;BME280;6810;63.824;20.288;2022-10-31T08:02:24;101371.34;;;-0.36;71.13
13476;BME280;6810;63.824;20.288;2022-10-31T08:05:33;101366.97;;;-0.35;71.02
13476;BME280;6810;63.824;20.288;2022-10-31T08:08:38;101371.31;;;-0.28;71.24
13476;BME280;6810;63.824;20.288;2022-10-31T08:11:26;101361.72;;;-0.25;71.53
13476;BME280;6810;63.824;20.288;2022-10-31T08:14:12;101353.84;;;-0.22;71.35
13476;BME280;6810;63.824;20.288;2022-10-31T08:17:00;101352.94;;;-0.18;71.08
13476;BME280;6810;63.824;20.288;2022-10-31T08:19:53;101305.03;;;-0.41;71.20
13476;BME280;6810;63.824;20.288;2022-10-31T08:22:55;101354.63;;;-0.09;71.27
13476;BME280;6810;63.824;20.288;2022-10-31T08:25:43;101352.88;;;-0.06;71.40
13476;BME280;6810;63.824;20.288;2022-10-31T08:28:30;101353.72;;;-0.01;71.48
13476;BME280;6810;63.824;20.288;2022-10-31T08:31:19;101341.50;;;0.00;71.23
13476;BME280;6810;63.824;20.288;2022-10-31T08:34:27;101339.69;;;0.08;71.29
13476;BME280;6810;63.824;20.288;2022-10-31T08:37:32;101346.66;;;0.14;71.46
13476;BME280;6810;63.824;20.288;2022-10-31T08:39:59;101338.78;;;0.18;71.32
13476;BME280;6810;63.824;20.288;2022-10-31T08:42:26;101338.75;;;0.23;71.47
13476;BME280;6810;63.824;20.288;2022-10-31T08:44:52;101335.22;;;0.27;71.42
13476;BME280;6810;63.824;20.288;2022-10-31T08:47:21;101343.03;;;0.33;71.16
13476;BME280;6810;63.824;20.288;2022-10-31T08:49:48;101308.16;;;0.19;71.31
13476;BME280;6810;63.824;20.288;2022-10-31T08:52:14;101300.25;;;0.25;71.23
13476;BME280;6810;63.824;20.288;2022-10-31T08:55:21;101324.56;;;0.48;71.33
13476;BME280;6810;63.824;20.288;2022-10-31T08:58:23;101320.16;;;0.53;71.70
13476;BME280;6810;63.824;20.288;2022-10-31T09:01:10;101312.28;;;0.53;71.36
13476;BME280;6810;63.824;20.288;2022-10-31T09:03:57;101319.22;;;0.64;71.41
13476;BME280;6810;63.824;20.288;2022-10-31T09:06:44;101320.88;;;0.70;71.21
13476;BME280;6810;63.824;20.288;2022-10-31T09:09:47;101316.53;;;0.70;71.54
13476;BME280;6810;63.824;20.288;2022-10-31T09:12:36;101323.41;;;0.82;71.36
13476;BME280;6810;63.824;20.288;2022-10-31T09:15:49;101315.47;;;0.88;71.47
13476;BME280;6810;63.824;20.288;2022-10-31T09:18:22;101311.03;;;0.94;71.84
13476;BME280;6810;63.824;20.288;2022-10-31T09:21:10;101306.63;;;1.01;71.50
13476;BME280;6810;63.824;20.288;2022-10-31T09:23:57;101308.28;;;1.08;71.38
13476;BME280;6810;63.824;20.288;2022-10-31T09:26:44;101299.44;;;1.13;71.73
13476;BME280;6810;63.824;20.288;2022-10-31T09:29:34;101294.13;;;1.19;72.02
13476;BME280;6810;63.824;20.288;2022-10-31T09:32:21;101290.59;;;1.23;71.92
13476;BME280;6810;63.824;20.288;2022-10-31T09:35:09;101282.66;;;1.29;71.68
13476;BME280;6810;63.824;20.288;2022-10-31T09:37:58;101291.34;;;1.36;71.85
13476;BME280;6810;63.824;20.288;2022-10-31T09:50:38;101253.44;;;1.55;71.65
13476;BME280;6810;63.824;20.288;2022-10-31T09:53:48;101269.06;;;1.64;72.34
13476;BME280;6810;63.824;20.288;2022-10-31T09:56:38;101247.25;;;1.59;71.81
13476;BME280;6810;63.824;20.288;2022-10-31T09:59:34;101253.19;;;1.73;71.87
13476;BME280;6810;63.824;20.288;2022-10-31T10:05:04;101259.22;;;1.81;72.78
13476;BME280;6810;63.824;20.288;2022-10-31T10:07:49;101158.25;;;1.38;71.85
13476;BME280;6810;63.824;20.288;2022-10-31T10:10:48;101251.16;;;1.93;72.00
13476;BME280;6810;63.824;20.288;2022-10-31T10:20:42;101211.78;;;1.90;72.89
13476;BME280;6810;63.824;20.288;2022-10-31T10:30:54;101222.63;;;2.24;72.98
13476;BME280;6810;63.824;20.288;2022-10-31T10:36:52;101219.00;;;2.32;73.23
13476;BME280;6810;63.824;20.288;2022-10-31T10:39:45;101219.78;;;2.36;72.66
13476;BME280;6810;63.824;20.288;2022-10-31T10:42:34;101222.34;;;2.40;73.21
13476;BME280;6810;63.824;20.288;2022-10-31T10:45:20;101217.91;;;2.44;72.22
13476;BME280;6810;63.824;20.288;2022-10-31T10:48:21;101218.69;;;2.49;72.40
13476;BME280;6810;63.824;20.288;2022-10-31T10:58:09;101198.25;;;2.64;73.75
13476;BME280;6810;63.824;20.288;2022-10-31T11:00:56;101192.91;;;2.69;73.41
13476;BME280;6810;63.824;20.288;2022-10-31T11:03:43;101179.69;;;2.72;72.64
13476;BME280;6810;63.824;20.288;2022-10-31T11:06:30;101179.59;;;2.76;72.93
13476;BME280;6810;63.824;20.288;2022-10-31T11:09:17;101192.63;;;2.82;72.84
13476;BME280;6810;63.824;20.288;2022-10-31T11:12:30;101087.63;;;2.26;73.38
13476;BME280;6810;63.824;20.288;2022-10-31T11:15:23;101140.28;;;2.69;73.14
13476;BME280;6810;63.824;20.288;2022-10-31T11:18:20;101116.88;;;2.54;73.02
13476;BME280;6810;63.824;20.288;2022-10-31T11:21:20;101181.81;;;2.97;73.69
13476;BME280;6810;63.824;20.288;2022-10-31T11:27:15;101176.38;;;3.05;73.00
13476;BME280;6810;63.824;20.288;2022-10-31T11:30:06;101095.59;;;2.66;73.49
13476;BME280;6810;63.824;20.288;2022-10-31T11:32:53;101165.75;;;3.09;73.50
13476;BME280;6810;63.824;20.288;2022-10-31T11:35:40;101169.94;;;3.18;73.36
13476;BME280;6810;63.824;20.288;2022-10-31T11:38:35;101093.53;;;2.80;74.59
13476;BME280;6810;63.824;20.288;2022-10-31T11:41:36;101141.06;;;3.13;74.23
13476;BME280;6810;63.824;20.288;2022-10-31T11:44:33;101142.50;;;3.29;74.65
13476;BME280;6810;63.824;20.288;2022-10-31T11:47:28;101117.34;;;3.15;74.60
13476;BME280;6810;63.824;20.288;2022-10-31T11:53:34;101134.44;;;3.35;74.54
13476;BME280;6810;63.824;20.288;2022-10-31T11:56:38;101120.53;;;3.29;74.94
13476;BME280;6810;63.824;20.288;2022-10-31T11:59:28;101135.94;;;3.47;75.17
13476;BME280;6810;63.824;20.288;2022-10-31T12:02:19;101143.72;;;3.51;74.02
13476;BME280;6810;63.824;20.288;2022-10-31T12:05:08;101136.59;;;3.56;75.24
13476;BME280;6810;63.824;20.288;2022-10-31T12:07:57;101131.25;;;3.59;75.28
13476;BME280;6810;63.824;20.288;2022-10-31T12:13:37;101097.13;;;3.53;74.83
13476;BME280;6810;63.824;20.288;2022-10-31T12:16:53;101117.69;;;3.75;75.23
13476;BME280;6810;63.824;20.288;2022-10-31T12:23:02;101109.44;;;3.90;76.12
13476;BME280;6810;63.824;20.288;2022-10-31T12:29:15;101055.25;;;3.78;75.53
13476;BME280;6810;63.824;20.288;2022-10-31T12:41:44;101091.44;;;4.37;75.57
13476;BME280;6810;63.824;20.288;2022-10-31T12:48:00;101088.13;;;4.63;77.20
13476;BME280;6810;63.824;20.288;2022-10-31T12:50:59;101077.19;;;4.75;77.12
13476;BME280;6810;63.824;20.288;2022-10-31T12:53:55;101079.56;;;4.84;76.52
13476;BME280;6810;63.824;20.288;2022-10-31T12:59:42;101066.78;;;4.99;77.15
13476;BME280;6810;63.824;20.288;2022-10-31T13:02:53;101069.09;;;5.10;78.16
13476;BME280;6810;63.824;20.288;2022-10-31T13:05:46;101073.19;;;5.20;78.36
13476;BME280;6810;63.824;20.288;2022-10-31T13:08:43;101064.16;;;5.27;77.61
13476;BME280;6810;63.824;20.288;2022-10-31T13:11:39;101065.69;;;5.34;78.51
13476;BME280;6810;63.824;20.288;2022-10-31T13:14:44;101050.38;;;5.45;77.99
13476;BME280;6810;63.824;20.288;2022-10-31T13:17:46;101051.84;;;5.54;77.81
13476;BME280;6810;63.824;20.288;2022-10-31T13:20:45;101059.53;;;5.61;78.64
13476;BME280;6810;63.824;20.288;2022-10-31T13:23:36;101054.94;;;5.66;78.30
13476;BME280;6810;63.824;20.288;2022-10-31T13:26:36;101061.84;;;5.70;79.10
13476;BME280;6810;63.824;20.288;2022-10-31T13:29:33;101051.06;;;5.76;78.76
13476;BME280;6810;63.824;20.288;2022-10-31T13:32:22;100950.59;;;5.25;78.78
13476;BME280;6810;63.824;20.288;2022-10-31T13:41:48;101043.22;;;6.01;79.69
13476;BME280;6810;63.824;20.288;2022-10-31T13:44:36;101039.63;;;6.03;79.62
13476;BME280;6810;63.824;20.288;2022-10-31T13:47:27;101047.22;;;6.12;80.00
13476;BME280;6810;63.824;20.288;2022-10-31T13:53:19;101052.03;;;6.26;80.40
13476;BME280;6810;63.824;20.288;2022-10-31T13:56:20;101041.22;;;6.32;80.20
13476;BME280;6810;63.824;20.288;2022-10-31T14:01:59;101032.94;;;6.41;80.82
13476;BME280;6810;63.824;20.288;2022-10-31T14:05:18;101013.81;;;6.33;80.88
13476;BME280;6810;63.824;20.288;2022-10-31T14:08:01;101031.88;;;6.46;80.62
13476;BME280;6810;63.824;20.288;2022-10-31T14:10:53;101038.91;;;6.47;80.68
13476;BME280;6810;63.824;20.288;2022-10-31T14:13:44;101018.06;;;6.38;81.02
13476;BME280;6810;63.824;20.288;2022-10-31T14:16:32;101041.44;;;6.50;81.03
13476;BME280;6810;63.824;20.288;2022-10-31T14:19:22;101044.84;;;6.54;81.05
13476;BME280;6810;63.824;20.288;2022-10-31T14:22:20;101037.75;;;6.54;81.04
13476;BME280;6810;63.824;20.288;2022-10-31T14:25:35;101033.31;;;6.55;80.77
13476;BME280;6810;63.824;20.288;2022-10-31T14:28:32;101028.03;;;6.55;80.85
13476;BME280;6810;63.824;20.288;2022-10-31T14:37:33;101036.94;;;6.52;81.04
13476;BME280;6810;63.824;20.288;2022-10-31T14:50:02;101032.63;;;6.50;81.94
13476;BME280;6810;63.824;20.288;2022-10-31T14:52:37;101019.38;;;6.50;81.27
13476;BME280;6810;63.824;20.288;2022-10-31T14:55:26;101030.03;;;6.48;81.84
13476;BME280;6810;63.824;20.288;2022-10-31T14:58:17;101017.72;;;6.47;81.63
13476;BME280;6810;63.824;20.288;2022-10-31T15:01:05;101013.53;;;6.42;81.91
13476;BME280;6810;63.824;20.288;2022-10-31T15:03:57;100951.25;;;6.07;81.58
13476;BME280;6810;63.824;20.288;2022-10-31T15:07:16;101018.66;;;6.46;81.89
13476;BME280;6810;63.824;20.288;2022-10-31T15:10:20;101017.81;;;6.44;81.26
13476;BME280;6810;63.824;20.288;2022-10-31T15:13:09;101031.00;;;6.46;81.30
13476;BME280;6810;63.824;20.288;2022-10-31T15:15:56;101028.53;;;6.41;81.68
13476;BME280;6810;63.824;20.288;2022-10-31T15:18:50;101035.50;;;6.44;81.76
13476;BME280;6810;63.824;20.288;2022-10-31T15:21:43;100962.13;;;6.00;81.71
13476;BME280;6810;63.824;20.288;2022-10-31T15:24:34;101032.84;;;6.44;81.31
13476;BME280;6810;63.824;20.288;2022-10-31T15:27:22;101034.59;;;6.45;81.78
13476;BME280;6810;63.824;20.288;2022-10-31T15:30:36;101013.03;;;6.31;81.89
13476;BME280;6810;63.824;20.288;2022-10-31T15:33:30;100966.31;;;6.05;81.58
13476;BME280;6810;63.824;20.288;2022-10-31T15:36:23;101031.94;;;6.45;81.50
13476;BME280;6810;63.824;20.288;2022-10-31T15:39:11;101025.72;;;6.46;81.62
13476;BME280;6810;63.824;20.288;2022-10-31T15:41:58;101025.72;;;6.46;81.85
13476;BME280;6810;63.824;20.288;2022-10-31T15:44:49;101031.88;;;6.46;81.72
13476;BME280;6810;63.824;20.288;2022-10-31T15:47:38;101030.13;;;6.45;81.87
13476;BME280;6810;63.824;20.288;2022-10-31T15:50:46;101037.19;;;6.46;81.61
13476;BME280;6810;63.824;20.288;2022-10-31T15:53:36;101019.72;;;6.41;82.05
13476;BME280;6810;63.824;20.288;2022-10-31T15:56:26;101029.13;;;6.49;82.03
13476;BME280;6810;63.824;20.288;2022-10-31T15:59:22;101034.41;;;6.49;82.20
13476;BME280;6810;63.824;20.288;2022-10-31T16:02:11;100974.78;;;6.15;81.64
13476;BME280;6810;63.824;20.288;2022-10-31T16:05:00;101032.56;;;6.51;81.69
13476;BME280;6810;63.824;20.288;2022-10-31T16:07:51;101025.81;;;6.43;81.43
13476;BME280;6810;63.824;20.288;2022-10-31T16:10:38;101045.75;;;6.53;81.97
13476;BME280;6810;63.824;20.288;2022-10-31T16:13:34;101045.75;;;6.53;81.96
13476;BME280;6810;63.824;20.288;2022-10-31T16:16:22;101038.72;;;6.52;81.74
13476;BME280;6810;63.824;20.288;2022-10-31T16:19:30;101003.53;;;6.25;81.78
13476;BME280;6810;63.824;20.288;2022-10-31T16:22:22;101050.09;;;6.55;81.90
13476;BME280;6810;63.824;20.288;2022-10-31T16:25:12;101046.63;;;6.53;81.83
13476;BME280;6810;63.824;20.288;2022-10-31T16:28:23;101050.97;;;6.54;81.53
13476;BME280;6810;63.824;20.288;2022-10-31T16:31:14;100959.38;;;6.03;81.75
13476;BME280;6810;63.824;20.288;2022-10-31T16:34:23;101047.38;;;6.57;81.85
13476;BME280;6810;63.824;20.288;2022-10-31T16:37:08;101056.09;;;6.59;81.95
13476;BME280;6810;63.824;20.288;2022-10-31T16:39:55;101059.63;;;6.59;82.13
13476;BME280;6810;63.824;20.288;2022-10-31T16:42:43;101057.81;;;6.61;81.64
13476;BME280;6810;63.824;20.288;2022-10-31T16:45:31;101064.88;;;6.61;81.89
13476;BME280;6810;63.824;20.288;2022-10-31T16:48:20;101060.44;;;6.61;82.47
13476;BME280;6810;63.824;20.288;2022-10-31T16:51:07;100996.28;;;6.30;81.79
13476;BME280;6810;63.824;20.288;2022-10-31T16:53:54;101051.56;;;6.62;81.95
13476;BME280;6810;63.824;20.288;2022-10-31T16:56:44;101059.47;;;6.64;81.92
13476;BME280;6810;63.824;20.288;2022-10-31T16:59:11;101061.19;;;6.65;82.01
13476;BME280;6810;63.824;20.288;2022-10-31T17:01:43;101075.25;;;6.67;81.90
13476;BME280;6810;63.824;20.288;2022-10-31T17:04:13;101068.16;;;6.67;81.75
13476;BME280;6810;63.824;20.288;2022-10-31T17:06:41;101084.06;;;6.67;81.70
13476;BME280;6810;63.824;20.288;2022-10-31T17:09:08;101026.84;;;6.39;82.12
13476;BME280;6810;63.824;20.288;2022-10-31T17:11:35;101078.69;;;6.69;81.42
13476;BME280;6810;63.824;20.288;2022-10-31T17:14:03;101068.94;;;6.69;81.77
13476;BME280;6810;63.824;20.288;2022-10-31T17:16:50;101067.19;;;6.70;81.67
13476;BME280;6810;63.824;20.288;2022-10-31T17:19:17;101070.69;;;6.70;81.93
13476;BME280;6810;63.824;20.288;2022-10-31T17:21:44;101070.66;;;6.72;81.27
13476;BME280;6810;63.824;20.288;2022-10-31T17:24:31;101075.06;;;6.71;81.43
13476;BME280;6810;63.824;20.288;2022-10-31T17:27:18;101071.53;;;6.71;81.43
13476;BME280;6810;63.824;20.288;2022-10-31T17:30:11;101080.38;;;6.71;81.30
13476;BME280;6810;63.824;20.288;2022-10-31T17:32:59;101089.19;;;6.72;81.24
13476;BME280;6810;63.824;20.288;2022-10-31T17:35:45;101090.25;;;6.66;80.95
13476;BME280;6810;63.824;20.288;2022-10-31T17:38:32;101093.72;;;6.68;81.21
13476;BME280;6810;63.824;20.288;2022-10-31T17:41:19;101086.66;;;6.69;80.86
13476;BME280;6810;63.824;20.288;2022-10-31T17:44:09;101076.41;;;6.60;80.83
13476;BME280;6810;63.824;20.288;2022-10-31T17:46:56;101097.31;;;6.67;80.46
13476;BME280;6810;63.824;20.288;2022-10-31T17:49:42;101100.78;;;6.68;80.45
13476;BME280;6810;63.824;20.288;2022-10-31T17:52:29;101100.84;;;6.66;80.26
13476;BME280;6810;63.824;20.288;2022-10-31T17:55:16;101099.19;;;6.64;80.36
13476;BME280;6810;63.824;20.288;2022-10-31T17:58:04;101037.81;;;6.28;80.32
13476;BME280;6810;63.824;20.288;2022-10-31T18:00:50;101101.94;;;6.61;80.00
13476;BME280;6810;63.824;20.288;2022-10-31T18:03:38;101116.16;;;6.58;79.64
13476;BME280;6810;63.824;20.288;2022-10-31T18:06:25;101012.50;;;5.97;79.76
13476;BME280;6810;63.824;20.288;2022-10-31T18:09:12;101118.97;;;6.54;79.69
13476;BME280;6810;63.824;20.288;2022-10-31T18:11:58;101131.34;;;6.53;79.94
13476;BME280;6810;63.824;20.288;2022-10-31T18:14:45;101132.34;;;6.51;79.77
13476;BME280;6810;63.824;20.288;2022-10-31T18:17:32;101127.94;;;6.50;79.75
13476;BME280;6810;63.824;20.288;2022-10-31T18:20:19;101134.16;;;6.49;79.73
13476;BME280;6810;63.824;20.288;2022-10-31T18:23:06;101129.91;;;6.45;79.29
13476;BME280;6810;63.824;20.288;2022-10-31T18:25:53;101085.00;;;6.17;79.22
13476;BME280;6810;63.824;20.288;2022-10-31T18:28:40;101134.47;;;6.40;79.73
13476;BME280;6810;63.824;20.288;2022-10-31T18:31:26;101138.03;;;6.39;79.33
13476;BME280;6810;63.824;20.288;2022-10-31T18:34:14;101142.47;;;6.38;79.20
13476;BME280;6810;63.824;20.288;2022-10-31T18:37:01;101136.38;;;6.36;79.12
13476;BME280;6810;63.824;20.288;2022-10-31T18:39:47;101141.72;;;6.35;79.11
13476;BME280;6810;63.824;20.288;2022-10-31T18:42:34;101154.06;;;6.34;78.84
13476;BME280;6810;63.824;20.288;2022-10-31T18:45:21;101152.41;;;6.32;78.90
13476;BME280;6810;63.824;20.288;2022-10-31T18:48:15;101153.38;;;6.29;79.04
13476;BME280;6810;63.824;20.288;2022-10-31T18:51:03;101160.50;;;6.27;78.91
13476;BME280;6810;63.824;20.288;2022-10-31T18:53:52;101158.84;;;6.25;78.77
13476;BME280;6810;63.824;20.288;2022-10-31T18:56:39;101159.84;;;6.21;78.64
13476;BME280;6810;63.824;20.288;2022-10-31T18:59:25;101169.69;;;6.17;78.95
13476;BME280;6810;63.824;20.288;2022-10-31T19:02:12;101182.13;;;6.14;78.55
13476;BME280;6810;63.824;20.288;2022-10-31T19:05:02;101170.78;;;6.10;78.24
13476;BME280;6810;63.824;20.288;2022-10-31T19:07:49;101159.47;;;6.05;78.10
13476;BME280;6810;63.824;20.288;2022-10-31T19:10:37;101089.63;;;5.57;78.15
13476;BME280;6810;63.824;20.288;2022-10-31T19:13:24;101158.81;;;5.99;79.03
13476;BME280;6810;63.824;20.288;2022-10-31T19:16:14;101164.22;;;5.96;78.49
13476;BME280;6810;63.824;20.288;2022-10-31T19:19:01;101161.63;;;5.94;78.17
13476;BME280;6810;63.824;20.288;2022-10-31T19:21:48;101152.19;;;5.86;78.23
13476;BME280;6810;63.824;20.288;2022-10-31T19:24:34;101171.47;;;5.89;77.85
13476;BME280;6810;63.824;20.288;2022-10-31T19:27:21;101176.88;;;5.86;77.84
13476;BME280;6810;63.824;20.288;2022-10-31T19:30:09;101178.69;;;5.84;77.74
13476;BME280;6810;63.824;20.288;2022-10-31T19:32:56;101182.38;;;5.79;77.89
13476;BME280;6810;63.824;20.288;2022-10-31T19:35:42;101133.94;;;5.49;78.16
13476;BME280;6810;63.824;20.288;2022-10-31T19:38:29;101184.44;;;5.69;78.34
13476;BME280;6810;63.824;20.288;2022-10-31T19:41:18;101183.63;;;5.66;77.98
13476;BME280;6810;63.824;20.288;2022-10-31T19:44:05;101181.13;;;5.61;78.31
13476;BME280;6810;63.824;20.288;2022-10-31T19:46:52;101183.09;;;5.56;78.11
13476;BME280;6810;63.824;20.288;2022-10-31T19:49:39;101138.16;;;5.27;77.41
13476;BME280;6810;63.824;20.288;2022-10-31T19:52:25;101196.50;;;5.50;77.49
13476;BME280;6810;63.824;20.288;2022-10-31T19:55:12;101188.66;;;5.47;77.83
13476;BME280;6810;63.824;20.288;2022-10-31T19:57:59;101183.44;;;5.44;77.13
13476;BME280;6810;63.824;20.288;2022-10-31T20:00:46;101179.53;;;5.28;77.93
13476;BME280;6810;63.824;20.288;2022-10-31T20:03:33;101196.03;;;5.36;77.14
13476;BME280;6810;63.824;20.288;2022-10-31T20:06:27;101200.56;;;5.31;77.57
13476;BME280;6810;63.824;20.288;2022-10-31T20:09:14;101185.88;;;5.22;77.19
13476;BME280;6810;63.824;20.288;2022-10-31T20:12:00;101203.44;;;5.23;77.35
13476;BME280;6810;63.824;20.288;2022-10-31T20:14:48;101194.63;;;5.23;76.91
13476;BME280;6810;63.824;20.288;2022-10-31T20:17:35;101197.38;;;5.20;77.33
13476;BME280;6810;63.824;20.288;2022-10-31T20:20:21;101193.03;;;5.17;77.84
13476;BME280;6810;63.824;20.288;2022-10-31T20:23:09;101168.91;;;4.99;77.42
13476;BME280;6810;63.824;20.288;2022-10-31T20:25:55;101193.19;;;5.13;77.07
13476;BME280;6810;63.824;20.288;2022-10-31T20:28:43;101192.34;;;5.11;77.03
13476;BME280;6810;63.824;20.288;2022-10-31T20:31:32;101192.34;;;5.11;76.93